createdAt,value
2019-04-23T00:02:46.100Z,3.22
2019-04-23T00:04:57.409Z,3.62
2019-04-23T00:07:39.659Z,3.55
2019-04-23T00:09:57.613Z,3.20
2019-04-23T00:12:38.109Z,3.40
2019-04-23T00:17:35.856Z,3.30
2019-04-23T00:19:55.218Z,3.58
2019-04-23T00:22:37.068Z,3.77
2019-04-23T00:25:33.141Z,3.20
2019-04-23T00:30:18.908Z,3.67
2019-04-23T00:32:42.309Z,2.98
2019-04-23T00:35:05.990Z,3.42
2019-04-23T00:37:35.352Z,3.62
2019-04-23T00:40:02.536Z,3.20
2019-04-23T00:42:38.529Z,3.00
2019-04-23T00:45:01.734Z,2.80
2019-04-23T00:47:38.307Z,3.05
2019-04-23T00:50:12.661Z,3.35
2019-04-23T00:52:45.730Z,2.90
2019-04-23T00:55:09.950Z,3.10
2019-04-23T00:57:35.458Z,3.17
2019-04-23T01:00:02.041Z,3.02
2019-04-23T01:02:33.628Z,3.35
2019-04-23T01:05:04.690Z,3.22
2019-04-23T01:07:29.629Z,3.12
2019-04-23T01:10:08.767Z,2.95
2019-04-23T01:12:37.543Z,3.20
2019-04-23T01:15:04.734Z,2.83
2019-04-23T01:17:39.496Z,2.85
2019-04-23T01:20:12.515Z,3.33
2019-04-23T01:22:16.653Z,3.62
2019-04-23T01:25:04.739Z,4.20
2019-04-23T01:27:58.943Z,3.62
2019-04-23T01:30:27.703Z,3.15
2019-04-23T01:32:54.570Z,3.27
2019-04-23T01:35:39.682Z,3.65
2019-04-23T01:37:53.862Z,2.83
2019-04-23T01:40:28.910Z,4.05
2019-04-23T01:42:49.279Z,3.60
2019-04-23T01:45:24.179Z,3.42
2019-04-23T01:52:55.026Z,3.40
2019-04-23T01:55:26.287Z,3.37
2019-04-23T01:57:58.898Z,3.72
2019-04-23T02:00:22.769Z,3.10
2019-04-23T02:03:01.119Z,3.05
2019-04-23T02:05:22.895Z,3.37
2019-04-23T02:08:03.315Z,3.37
2019-04-23T02:10:20.500Z,3.60
2019-04-23T02:12:49.941Z,3.47
2019-04-23T02:15:17.000Z,3.10
2019-04-23T02:17:50.104Z,4.10
2019-04-23T02:20:16.055Z,3.77
2019-04-23T02:23:18.521Z,3.37
2019-04-23T02:25:44.067Z,2.92
2019-04-23T02:28:09.175Z,3.65
2019-04-23T02:30:57.863Z,3.60
2019-04-23T02:35:56.299Z,3.55
2019-04-23T02:43:13.069Z,3.62
2019-04-23T02:45:48.472Z,3.17
2019-04-23T02:48:24.116Z,3.52
2019-04-23T02:50:39.465Z,3.80
2019-04-23T02:53:14.829Z,3.85
2019-04-23T02:55:43.707Z,3.67
2019-04-23T02:58:11.130Z,3.30
2019-04-23T03:10:40.386Z,4.00
2019-04-23T03:13:19.328Z,3.55
2019-04-23T03:19:02.618Z,3.47
2019-04-23T03:24:25.167Z,3.85
2019-04-23T03:26:47.658Z,3.83
2019-04-23T03:29:16.774Z,3.87
2019-04-23T03:34:15.118Z,3.90
2019-04-23T03:37:06.288Z,3.67
2019-04-23T03:43:51.930Z,4.00
2019-04-23T03:49:01.240Z,4.72
2019-04-23T03:51:36.485Z,4.10
2019-04-23T03:59:03.393Z,4.20
2019-04-23T04:01:48.711Z,4.30
2019-04-23T04:04:22.740Z,4.42
2019-04-23T04:09:08.107Z,4.87
2019-04-23T04:11:21.648Z,4.65
2019-04-23T04:14:03.449Z,4.40
2019-04-23T04:18:57.313Z,4.67
2019-04-23T04:21:29.889Z,4.58
2019-04-23T04:24:05.081Z,4.50
2019-04-23T04:28:54.917Z,4.25
2019-04-23T04:31:21.905Z,4.72
2019-04-23T04:34:01.117Z,4.75
2019-04-23T04:38:46.915Z,5.08
2019-04-23T04:41:14.347Z,4.80
2019-04-23T04:43:54.186Z,4.72
2019-04-23T04:46:21.285Z,4.83
2019-04-23T04:51:24.401Z,4.95
2019-04-23T04:53:50.800Z,5.28
2019-04-23T04:56:28.053Z,4.90
2019-04-23T05:06:31.190Z,4.72
2019-04-23T05:08:41.547Z,5.03
2019-04-23T05:11:08.595Z,5.28
2019-04-23T05:18:42.625Z,5.03
2019-04-23T05:21:23.971Z,6.00
2019-04-23T05:23:52.511Z,5.25
2019-04-23T05:26:23.921Z,5.25
2019-04-23T05:28:55.544Z,5.20
2019-04-23T05:31:15.808Z,5.40
2019-04-23T05:33:48.935Z,5.17
2019-04-23T05:36:26.209Z,5.12
2019-04-23T05:39:00.901Z,6.12
2019-04-23T05:41:19.998Z,5.50
2019-04-23T05:43:43.514Z,5.80
2019-04-23T05:46:14.303Z,5.35
2019-04-23T05:48:40.445Z,5.80
2019-04-23T05:51:11.237Z,6.03
2019-04-23T05:53:43.665Z,5.40
2019-04-23T05:58:36.941Z,5.55
2019-04-23T06:04:08.819Z,6.03
2019-04-23T06:08:59.762Z,6.08
2019-04-23T06:14:01.034Z,5.72
2019-04-23T06:16:31.456Z,5.75
2019-04-23T06:18:59.249Z,5.90
2019-04-23T06:21:31.300Z,6.03
2019-04-23T06:23:51.765Z,6.37
2019-04-23T06:26:39.551Z,6.12
2019-04-23T06:28:56.244Z,6.33
2019-04-23T06:31:24.497Z,5.92
2019-04-23T06:33:48.034Z,6.00
2019-04-23T06:36:24.232Z,6.25
2019-04-23T06:38:54.519Z,6.50
2019-04-23T06:41:15.359Z,5.92
2019-04-23T06:44:02.123Z,6.40
2019-04-23T06:46:24.200Z,6.35
2019-04-23T06:48:47.279Z,6.92
2019-04-23T06:51:37.933Z,6.37
2019-04-23T06:53:43.114Z,6.28
2019-04-23T06:56:22.383Z,6.25
2019-04-23T06:58:43.427Z,5.97
2019-04-23T07:01:09.566Z,6.62
2019-04-23T07:03:51.805Z,6.42
2019-04-23T07:06:28.578Z,6.17
2019-04-23T07:09:08.121Z,6.50
2019-04-23T07:11:23.463Z,6.67
2019-04-23T07:13:57.644Z,6.58
2019-04-23T07:16:11.378Z,6.70
2019-04-23T07:18:41.578Z,7.03
2019-04-23T07:21:12.973Z,6.92
2019-04-23T07:23:46.815Z,6.17
2019-04-23T07:26:17.523Z,7.05
2019-04-23T07:28:44.704Z,6.65
2019-04-23T07:31:15.199Z,6.58
2019-04-23T07:33:44.636Z,6.72
2019-04-23T07:36:15.614Z,6.70
2019-04-23T07:38:55.011Z,6.75
2019-04-23T07:41:32.253Z,6.75
2019-04-23T07:44:12.525Z,6.65
2019-04-23T07:46:56.310Z,6.80
2019-04-23T07:49:10.350Z,6.50
2019-04-23T07:56:35.763Z,6.58
2019-04-23T07:59:14.260Z,6.87
2019-04-23T08:01:34.874Z,6.78
2019-04-23T08:04:03.112Z,7.03
2019-04-23T08:06:33.205Z,7.15
2019-04-23T08:09:03.644Z,6.83
2019-04-23T08:16:35.230Z,7.35
2019-04-23T08:18:58.924Z,6.80
2019-04-23T08:21:32.037Z,6.55
2019-04-23T08:24:28.944Z,6.62
2019-04-23T08:26:59.065Z,6.85
2019-04-23T08:29:37.114Z,7.62
2019-04-23T08:32:13.832Z,6.37
2019-04-23T08:39:43.397Z,7.03
2019-04-23T08:42:33.114Z,6.70
2019-04-23T08:45:10.550Z,6.83
2019-04-23T08:48:00.727Z,7.08
2019-04-23T08:50:27.440Z,7.12
2019-04-23T08:52:38.285Z,6.90
2019-04-23T08:55:13.701Z,6.50
2019-04-23T08:57:32.161Z,7.08
2019-04-23T09:00:02.873Z,6.72
2019-04-23T09:02:43.875Z,6.97
2019-04-23T09:05:09.429Z,6.87
2019-04-23T09:10:07.700Z,7.15
2019-04-23T09:12:35.026Z,9.05
2019-04-23T09:15:07.847Z,7.30
2019-04-23T09:17:34.657Z,7.03
2019-04-23T09:25:03.962Z,7.75
2019-04-23T09:27:42.103Z,7.53
2019-04-23T09:30:02.622Z,6.60
2019-04-23T09:35:20.985Z,8.83
2019-04-23T09:38:10.146Z,8.40
2019-04-23T09:43:31.506Z,5.58
2019-04-23T09:46:22.485Z,6.00
2019-04-23T09:48:54.622Z,5.67
2019-04-23T09:51:17.664Z,5.97
2019-04-23T09:53:41.092Z,6.67
2019-04-23T09:56:19.513Z,6.10
2019-04-23T09:58:49.967Z,6.17
2019-04-23T10:01:20.472Z,6.20
2019-04-23T10:03:36.271Z,5.72
2019-04-23T10:05:59.811Z,5.83
2019-04-23T10:08:26.809Z,6.12
2019-04-23T10:10:49.108Z,5.75
2019-04-23T10:13:17.954Z,5.78
2019-04-23T10:15:48.080Z,5.37
2019-04-23T10:18:16.180Z,5.65
2019-04-23T10:20:44.600Z,5.67
2019-04-23T10:23:12.420Z,5.92
2019-04-23T10:25:40.302Z,5.30
2019-04-23T10:28:16.374Z,6.05
2019-04-23T10:30:44.903Z,5.92
2019-04-23T10:33:13.728Z,5.70
2019-04-23T10:35:51.538Z,6.00
2019-04-23T10:38:14.385Z,5.85
2019-04-23T10:40:43.978Z,5.75
2019-04-23T10:43:09.258Z,5.85
2019-04-23T10:46:03.961Z,5.53
2019-04-23T10:51:41.242Z,5.53
2019-04-23T10:54:24.035Z,6.03
2019-04-23T10:59:28.747Z,5.53
2019-04-23T11:02:15.983Z,6.00
2019-04-23T11:04:47.311Z,5.20
2019-04-23T11:07:17.070Z,5.97
2019-04-23T11:09:45.253Z,5.50
2019-04-23T11:12:02.126Z,5.70
2019-04-23T11:14:34.396Z,5.78
2019-04-23T11:17:17.778Z,5.72
2019-04-23T11:19:33.998Z,5.22
2019-04-23T11:22:13.251Z,5.60
2019-04-23T11:26:55.794Z,5.72
2019-04-23T11:32:31.729Z,5.03
2019-04-23T11:39:23.277Z,5.90
2019-04-23T11:41:59.735Z,6.10
2019-04-23T11:44:26.948Z,5.25
2019-04-23T11:49:33.060Z,6.50
2019-04-23T11:51:56.315Z,5.28
2019-04-23T11:54:17.907Z,6.42
2019-04-23T11:59:28.405Z,5.58
2019-04-23T12:02:07.149Z,6.08
2019-04-23T12:04:55.097Z,6.25
2019-04-23T12:07:22.803Z,5.83
2019-04-23T12:10:19.840Z,5.58
2019-04-23T12:15:13.434Z,6.35
2019-04-23T12:17:43.803Z,5.22
2019-04-23T12:20:16.218Z,5.70
2019-04-23T12:25:19.876Z,4.95
2019-04-23T12:27:33.145Z,5.60
2019-04-23T12:38:04.180Z,5.70
2019-04-23T12:40:46.562Z,5.00
2019-04-23T12:43:04.934Z,5.85
2019-04-23T12:48:09.781Z,5.70
2019-04-23T12:50:51.647Z,5.90
2019-04-23T12:53:05.024Z,5.63
2019-04-23T12:58:01.174Z,5.78
2019-04-23T13:02:56.226Z,5.42
2019-04-23T13:05:28.918Z,5.80
2019-04-23T13:08:24.881Z,5.60
2019-04-23T13:10:28.362Z,5.53
2019-04-23T13:15:22.532Z,5.28
2019-04-23T13:20:23.518Z,5.95
2019-04-23T13:22:57.715Z,5.35
2019-04-23T13:25:49.609Z,5.65
2019-04-23T13:30:53.139Z,5.47
2019-04-23T13:33:28.266Z,5.03
2019-04-23T13:35:53.335Z,5.55
2019-04-23T13:45:59.594Z,6.20
2019-04-23T13:48:10.831Z,5.65
2019-04-23T13:50:55.387Z,6.10
2019-04-23T13:53:31.662Z,6.00
2019-04-23T13:55:42.903Z,6.00
2019-04-23T13:58:14.678Z,5.50
2019-04-23T14:00:58.098Z,6.15
2019-04-23T14:11:03.610Z,5.55
2019-04-23T14:13:46.317Z,5.80
2019-04-23T14:21:08.088Z,5.47
2019-04-23T14:23:59.121Z,5.45
2019-04-23T14:28:37.369Z,5.45
2019-04-23T14:31:07.955Z,4.67
2019-04-23T14:36:03.234Z,5.22
2019-04-23T14:38:41.663Z,5.53
2019-04-23T14:41:12.483Z,5.55
2019-04-23T14:43:30.928Z,5.47
2019-04-23T14:51:25.636Z,5.75
2019-04-23T14:53:53.806Z,5.60
2019-04-23T14:56:23.956Z,5.20
2019-04-23T14:58:53.466Z,4.60
2019-04-23T15:03:46.829Z,5.10
2019-04-23T15:06:27.713Z,5.28
2019-04-23T15:11:24.694Z,5.50
2019-04-23T15:13:45.583Z,5.00
2019-04-23T15:22:16.920Z,5.37
2019-04-23T15:24:13.930Z,5.67
2019-04-23T15:28:53.986Z,5.45
2019-04-23T15:31:39.390Z,5.00
2019-04-23T15:39:19.543Z,5.20
2019-04-23T15:41:38.221Z,5.50
2019-04-23T15:46:40.907Z,5.10
2019-04-23T15:51:38.508Z,5.28
2019-04-23T15:54:02.639Z,5.37
2019-04-23T15:59:18.535Z,5.10
2019-04-23T16:01:37.212Z,5.55
2019-04-23T16:03:30.184Z,5.17
2019-04-23T16:05:59.422Z,4.67
2019-04-23T16:14:15.800Z,5.75
2019-04-23T16:16:31.529Z,4.92
2019-04-23T16:19:07.983Z,6.00
2019-04-23T16:21:51.403Z,5.40
2019-04-23T16:24:06.109Z,4.95
2019-04-23T16:31:34.581Z,5.62
2019-04-23T16:34:25.648Z,4.45
2019-04-23T16:36:55.774Z,5.22
2019-04-23T16:39:16.285Z,4.87
2019-04-23T16:44:20.072Z,4.70
2019-04-23T16:46:56.171Z,5.22
2019-04-23T16:49:19.380Z,5.00
2019-04-23T16:51:45.935Z,5.05
2019-04-23T16:54:19.092Z,5.03
2019-04-23T16:57:01.434Z,5.17
2019-04-23T16:59:18.702Z,5.15
2019-04-23T17:01:44.123Z,4.85
2019-04-23T17:04:19.633Z,5.22
2019-04-23T17:06:44.327Z,5.10
2019-04-23T17:09:15.845Z,4.67
2019-04-23T17:11:53.110Z,5.22
2019-04-23T17:19:10.942Z,5.17
2019-04-23T17:21:57.309Z,5.05
2019-04-23T17:24:14.620Z,5.15
2019-04-23T17:29:05.824Z,5.33
2019-04-23T17:34:10.837Z,5.45
2019-04-23T17:39:46.973Z,5.25
2019-04-23T17:45:06.082Z,5.42
2019-04-23T17:47:42.824Z,5.90
2019-04-23T17:50:16.413Z,5.08
2019-04-23T17:52:41.827Z,5.17
2019-04-23T17:55:13.349Z,5.70
2019-04-23T18:02:55.455Z,5.20
2019-04-23T18:10:22.250Z,5.60
2019-04-23T18:17:45.279Z,6.35
2019-04-23T18:20:24.775Z,5.70
2019-04-23T18:23:00.721Z,5.70
2019-04-23T18:25:45.683Z,5.92
2019-04-23T18:28:08.961Z,6.30
2019-04-23T18:31:06.182Z,6.20
2019-04-23T18:36:02.475Z,6.75
2019-04-23T18:38:55.299Z,6.30
2019-04-23T18:41:05.443Z,6.20
2019-04-23T18:46:10.135Z,6.45
2019-04-23T18:58:44.839Z,6.72
2019-04-23T19:01:05.320Z,7.47
2019-04-23T19:06:41.126Z,6.62
2019-04-23T19:10:05.638Z,6.80
2019-04-23T19:12:31.389Z,6.37
2019-04-23T19:14:56.199Z,6.33
2019-04-23T19:17:43.006Z,7.70
2019-04-23T19:24:45.168Z,7.08
2019-04-23T19:32:14.250Z,7.33
2019-04-23T19:35:16.527Z,7.37
2019-04-23T19:37:30.334Z,7.35
2019-04-23T19:39:52.094Z,7.60
2019-04-23T19:42:18.066Z,6.97
2019-04-23T19:44:48.184Z,7.53
2019-04-23T19:49:51.329Z,7.60
2019-04-23T19:52:52.366Z,7.53
2019-04-23T19:54:58.796Z,7.50
2019-04-23T19:57:22.840Z,7.47
2019-04-23T20:02:20.017Z,7.92
2019-04-23T20:12:09.448Z,6.65
2019-04-23T20:17:34.074Z,7.75
2019-04-23T20:27:15.508Z,7.92
2019-04-23T20:30:15.512Z,9.95
2019-04-23T20:35:11.248Z,8.60
2019-04-23T20:38:20.557Z,7.67
2019-04-23T20:40:23.671Z,8.38
2019-04-23T20:42:46.948Z,8.30
2019-04-23T20:45:16.519Z,8.68
2019-04-23T20:47:48.627Z,7.70
2019-04-23T20:50:06.937Z,8.55
2019-04-23T20:52:43.041Z,8.78
2019-04-23T20:55:06.786Z,8.28
2019-04-23T20:57:48.566Z,8.48
2019-04-23T21:00:25.977Z,8.53
2019-04-23T21:03:30.970Z,7.87
2019-04-23T21:08:13.875Z,8.98
2019-04-23T21:15:38.894Z,9.48
2019-04-23T21:18:10.859Z,9.05
2019-04-23T21:23:09.399Z,9.18
2019-04-23T21:25:30.507Z,9.90
2019-04-23T21:28:08.612Z,9.33
2019-04-23T21:33:52.126Z,9.23
2019-04-23T21:36:35.451Z,9.30
2019-04-23T21:47:01.267Z,8.93
2019-04-23T21:49:40.695Z,9.55
2019-04-23T21:52:02.223Z,9.78
2019-04-23T21:54:22.976Z,8.95
2019-04-23T21:59:29.534Z,9.45
2019-04-23T22:01:59.298Z,9.58
2019-04-23T22:09:21.222Z,9.65
2019-04-23T22:14:16.946Z,10.20
2019-04-23T22:16:57.638Z,9.98
2019-04-23T22:19:20.109Z,10.63
2019-04-23T22:21:54.456Z,10.72
2019-04-23T22:24:39.853Z,9.85
2019-04-23T22:31:47.435Z,9.28
2019-04-23T22:36:51.909Z,10.25
2019-04-23T22:39:17.676Z,10.08
2019-04-23T22:41:54.063Z,10.23
2019-04-23T22:44:14.392Z,10.53
2019-04-23T22:56:50.096Z,10.35
2019-04-23T22:59:26.378Z,10.00
2019-04-23T23:01:53.670Z,10.15
2019-04-23T23:04:24.324Z,10.80
2019-04-23T23:07:03.296Z,10.78
2019-04-23T23:11:49.073Z,10.78
2019-04-23T23:14:14.617Z,10.93
2019-04-23T23:19:16.994Z,10.93
2019-04-23T23:21:53.549Z,10.60
2019-04-23T23:24:10.076Z,11.18
2019-04-23T23:26:42.633Z,11.33
2019-04-23T23:29:04.411Z,10.95
2019-04-23T23:31:40.017Z,11.60
2019-04-23T23:36:40.405Z,11.48
2019-04-23T23:39:06.835Z,10.78
2019-04-23T23:41:33.809Z,10.88
2019-04-23T23:44:27.689Z,10.75
2019-04-23T23:46:37.851Z,11.12
2019-04-23T23:49:03.292Z,10.65
2019-04-23T23:51:39.852Z,10.80
2019-04-23T23:56:30.789Z,11.22
2019-04-23T23:59:03.882Z,11.08
